Time;durP1;ratioP1;P1;durP2;ratioP2;P2;SDS_P1;SDS_P2;PMS_P1;PMS_P2;Temp;Humidity;BMP_temperature;BMP_pressure;BME280_temperature;BME280_humidity;BME280_pressure;Samples;Min_cycle;Max_cycle;Signal;HPM_P1;HPM_P2
2023/09/11 00:02:20;;;;;;;11.65;6.15;;;;;;;;;;4977700;28;20202;-67
2023/09/11 00:04:47;;;;;;;8.95;6.20;;;;;;;;;;4991153;28;20960;-68
2023/09/11 00:07:14;;;;;;;9.98;6.15;;;;;;;;;;4986775;28;20234;-68
2023/09/11 00:09:41;;;;;;;10.25;6.00;;;;;;;;;;4983008;28;20357;-67
2023/09/11 00:12:08;;;;;;;10.27;6.40;;;;;;;;;;4984981;28;20233;-68
2023/09/11 00:14:35;;;;;;;10.30;5.97;;;;;;;;;;4981438;28;20214;-68
2023/09/11 00:17:02;;;;;;;10.25;6.18;;;;;;;;;;4992196;28;20213;-68
2023/09/11 00:19:31;;;;;;;17.45;5.97;;;;;;;;;;4984609;28;20234;-68
2023/09/11 00:21:58;;;;;;;9.02;6.40;;;;;;;;;;4989168;28;20213;-68
2023/09/11 00:24:25;;;;;;;11.23;6.43;;;;;;;;;;4991695;28;20202;-67
2023/09/11 00:26:52;;;;;;;13.70;6.75;;;;;;;;;;4992067;28;20236;-67
2023/09/11 00:29:19;;;;;;;10.07;6.03;;;;;;;;;;4992003;28;20205;-68
2023/09/11 00:31:47;;;;;;;13.02;6.10;;;;;;;;;;4991222;28;20206;-68
2023/09/11 00:34:14;;;;;;;13.10;6.57;;;;;;;;;;4991394;28;20201;-68
2023/09/11 00:36:42;;;;;;;9.82;6.30;;;;;;;;;;4991917;28;20213;-68
2023/09/11 00:39:10;;;;;;;9.50;6.28;;;;;;;;;;4991715;28;20217;-68
2023/09/11 00:41:37;;;;;;;13.30;6.97;;;;;;;;;;4991438;28;20260;-67
2023/09/11 00:44:04;;;;;;;9.48;5.90;;;;;;;;;;4991728;28;20218;-67
2023/09/11 00:46:31;;;;;;;15.63;6.47;;;;;;;;;;4985436;28;20237;-67
2023/09/11 00:48:58;;;;;;;13.88;6.57;;;;;;;;;;4987580;28;20217;-67
2023/09/11 00:51:26;;;;;;;22.30;6.05;;;;;;;;;;4990229;28;20202;-66
2023/09/11 00:53:54;;;;;;;13.07;6.50;;;;;;;;;;4990187;28;20959;-67
2023/09/11 00:56:21;;;;;;;13.52;6.35;;;;;;;;;;4990788;28;20220;-66
2023/09/11 00:58:49;;;;;;;11.57;5.60;;;;;;;;;;4988725;28;20209;-67
2023/09/11 01:01:16;;;;;;;16.95;6.07;;;;;;;;;;4986954;28;20233;-66
2023/09/11 01:03:44;;;;;;;10.43;6.00;;;;;;;;;;4987469;28;20229;-66
2023/09/11 01:06:11;;;;;;;8.70;5.85;;;;;;;;;;4987808;28;20245;-66
2023/09/11 01:08:38;;;;;;;11.60;6.30;;;;;;;;;;4989738;28;20230;-66
2023/09/11 01:11:06;;;;;;;15.07;6.53;;;;;;;;;;4990311;28;20205;-66
2023/09/11 01:13:33;;;;;;;13.40;6.30;;;;;;;;;;4990531;28;20214;-66
2023/09/11 01:16:02;;;;;;;12.95;6.70;;;;;;;;;;4987662;28;20197;-66
2023/09/11 01:18:31;;;;;;;13.82;5.93;;;;;;;;;;4974401;28;20212;-66
2023/09/11 01:21:13;;;;;;;15.63;7.00;;;;;;;;;;4988017;28;20256;-65
2023/09/11 01:23:50;;;;;;;11.02;6.00;;;;;;;;;;4989083;28;20236;-67
2023/09/11 01:26:38;;;;;;;7.20;5.65;;;;;;;;;;4990193;28;20216;-68
2023/09/11 01:29:11;;;;;;;8.73;6.13;;;;;;;;;;4990240;28;20220;-67
2023/09/11 01:31:39;;;;;;;6.68;5.45;;;;;;;;;;4987050;28;20205;-68
2023/09/11 01:34:07;;;;;;;8.95;6.50;;;;;;;;;;4989912;28;20244;-67
2023/09/11 01:36:34;;;;;;;14.10;6.30;;;;;;;;;;4990097;28;20672;-67
2023/09/11 01:39:02;;;;;;;12.35;6.18;;;;;;;;;;4988005;28;20210;-67
2023/09/11 01:41:33;;;;;;;9.98;6.22;;;;;;;;;;4989931;28;20729;-67
2023/09/11 01:44:01;;;;;;;17.13;6.80;;;;;;;;;;4987948;28;20220;-67
2023/09/11 01:46:30;;;;;;;11.30;6.75;;;;;;;;;;4988504;28;20226;-68
2023/09/11 01:48:58;;;;;;;11.40;6.07;;;;;;;;;;4989218;28;20416;-67
2023/09/11 01:51:25;;;;;;;12.13;6.32;;;;;;;;;;4987684;28;20668;-67
2023/09/11 01:53:57;;;;;;;8.85;6.13;;;;;;;;;;4985595;28;20218;-68
2023/09/11 01:56:24;;;;;;;10.77;6.20;;;;;;;;;;4986832;28;20229;-67
2023/09/11 01:58:51;;;;;;;9.70;6.00;;;;;;;;;;4986234;28;20683;-68
2023/09/11 02:01:18;;;;;;;14.38;6.78;;;;;;;;;;4987758;28;20233;-68
2023/09/11 02:03:46;;;;;;;12.55;6.15;;;;;;;;;;4988982;28;20585;-68
2023/09/11 02:06:13;;;;;;;13.05;6.78;;;;;;;;;;4985301;28;20577;-68
2023/09/11 02:08:40;;;;;;;9.65;6.18;;;;;;;;;;4988202;28;20221;-68
2023/09/11 02:11:08;;;;;;;11.60;5.60;;;;;;;;;;4987686;28;20206;-67
2023/09/11 02:13:35;;;;;;;9.30;5.95;;;;;;;;;;4989608;28;20264;-68
2023/09/11 02:16:02;;;;;;;11.50;6.00;;;;;;;;;;4989022;28;20210;-67
2023/09/11 02:18:29;;;;;;;11.32;6.28;;;;;;;;;;4988936;28;20224;-67
2023/09/11 02:20:57;;;;;;;12.38;7.07;;;;;;;;;;4988230;28;20245;-67
2023/09/11 02:23:24;;;;;;;10.05;6.47;;;;;;;;;;4989122;28;20217;-68
2023/09/11 02:25:53;;;;;;;8.43;5.55;;;;;;;;;;4988302;28;20217;-68
2023/09/11 02:28:20;;;;;;;13.85;6.05;;;;;;;;;;4989422;28;20224;-67
2023/09/11 02:30:47;;;;;;;11.20;6.50;;;;;;;;;;4986734;28;20229;-67
2023/09/11 02:33:14;;;;;;;13.05;6.57;;;;;;;;;;4989313;28;20213;-68
2023/09/11 02:35:41;;;;;;;14.07;5.68;;;;;;;;;;4988675;28;20206;-67
2023/09/11 02:38:10;;;;;;;9.13;6.00;;;;;;;;;;4989355;28;20214;-67
2023/09/11 02:40:37;;;;;;;13.63;6.20;;;;;;;;;;4988848;28;20229;-68
2023/09/11 02:43:04;;;;;;;9.15;6.43;;;;;;;;;;4989160;28;20213;-68
2023/09/11 02:45:31;;;;;;;12.93;5.95;;;;;;;;;;4988635;28;20202;-68
2023/09/11 02:47:58;;;;;;;11.80;5.82;;;;;;;;;;4988895;28;20217;-68
2023/09/11 02:50:25;;;;;;;16.92;6.00;;;;;;;;;;4988711;28;20206;-68
2023/09/11 02:52:52;;;;;;;12.57;5.97;;;;;;;;;;4988187;28;20212;-68
2023/09/11 02:55:20;;;;;;;8.63;6.00;;;;;;;;;;4988915;28;20221;-68
2023/09/11 02:57:47;;;;;;;15.85;6.07;;;;;;;;;;4988860;28;20210;-68
2023/09/11 03:00:15;;;;;;;13.02;6.07;;;;;;;;;;4988859;28;20311;-68
2023/09/11 03:02:42;;;;;;;8.77;6.13;;;;;;;;;;4988285;28;20240;-67
2023/09/11 03:05:09;;;;;;;11.90;5.63;;;;;;;;;;4989175;28;20229;-67
2023/09/11 03:07:37;;;;;;;9.38;5.90;;;;;;;;;;4989167;28;20260;-67
2023/09/11 03:10:04;;;;;;;11.68;6.22;;;;;;;;;;4989602;28;20247;-68
2023/09/11 03:12:32;;;;;;;13.13;5.60;;;;;;;;;;4989510;28;20234;-67
2023/09/11 03:15:03;;;;;;;8.65;6.53;;;;;;;;;;4988349;28;20220;-68
2023/09/11 03:17:30;;;;;;;10.80;6.10;;;;;;;;;;4989659;28;20236;-68
2023/09/11 03:19:57;;;;;;;8.35;5.65;;;;;;;;;;4989223;28;20931;-67
2023/09/11 03:22:25;;;;;;;8.98;6.28;;;;;;;;;;4989219;28;20270;-68
2023/09/11 03:24:52;;;;;;;9.93;6.20;;;;;;;;;;4989411;28;20221;-67
2023/09/11 03:27:19;;;;;;;8.27;6.20;;;;;;;;;;4988644;28;20635;-67
2023/09/11 03:29:47;;;;;;;11.27;6.78;;;;;;;;;;4993042;28;20225;-67
2023/09/11 03:32:14;;;;;;;14.68;6.82;;;;;;;;;;4992017;28;20216;-66
2023/09/11 03:34:41;;;;;;;18.30;6.00;;;;;;;;;;4993044;28;20742;-67
2023/09/11 03:37:08;;;;;;;19.38;6.68;;;;;;;;;;4992894;28;20308;-67
2023/09/11 03:39:35;;;;;;;7.80;5.72;;;;;;;;;;4992906;28;20206;-68
2023/09/11 03:42:02;;;;;;;13.18;6.72;;;;;;;;;;4992758;28;20225;-68
2023/09/11 03:44:29;;;;;;;12.60;6.15;;;;;;;;;;4992983;28;20566;-67
2023/09/11 03:46:58;;;;;;;7.82;6.20;;;;;;;;;;4992901;28;20217;-68
2023/09/11 03:49:25;;;;;;;12.77;6.82;;;;;;;;;;4992326;28;20213;-67
2023/09/11 03:51:52;;;;;;;9.98;6.43;;;;;;;;;;4992282;28;20209;-68
2023/09/11 03:54:19;;;;;;;11.38;6.00;;;;;;;;;;4992194;28;20210;-68
2023/09/11 03:56:46;;;;;;;9.35;5.97;;;;;;;;;;4992226;28;20214;-67
2023/09/11 03:59:13;;;;;;;10.00;6.57;;;;;;;;;;4992606;28;20225;-67
2023/09/11 04:01:40;;;;;;;16.90;7.05;;;;;;;;;;4992502;28;20233;-68
2023/09/11 04:04:09;;;;;;;8.98;6.50;;;;;;;;;;4991946;28;20205;-69
2023/09/11 04:06:36;;;;;;;9.43;6.60;;;;;;;;;;4992040;28;20209;-68
2023/09/11 04:09:05;;;;;;;8.43;6.63;;;;;;;;;;4992243;28;20246;-67
2023/09/11 04:11:32;;;;;;;14.13;7.55;;;;;;;;;;4992483;28;20209;-68
2023/09/11 04:13:59;;;;;;;10.70;7.15;;;;;;;;;;4992463;28;20245;-68
2023/09/11 04:16:26;;;;;;;8.07;6.63;;;;;;;;;;4992533;28;20473;-68
2023/09/11 04:18:53;;;;;;;7.35;6.65;;;;;;;;;;4992232;28;20221;-68
2023/09/11 04:21:21;;;;;;;14.40;7.25;;;;;;;;;;4991478;28;20742;-67
2023/09/11 04:23:48;;;;;;;10.27;6.70;;;;;;;;;;4992359;28;20217;-67
2023/09/11 04:26:16;;;;;;;10.48;7.13;;;;;;;;;;4992186;28;20213;-68
2023/09/11 04:28:43;;;;;;;14.05;7.43;;;;;;;;;;4992131;28;20214;-68
2023/09/11 04:31:10;;;;;;;11.15;6.85;;;;;;;;;;4972514;28;20253;-68
2023/09/11 04:33:37;;;;;;;15.85;7.55;;;;;;;;;;4972629;28;20206;-67
2023/09/11 04:36:05;;;;;;;14.30;7.38;;;;;;;;;;4991574;28;20220;-68
2023/09/11 04:38:33;;;;;;;11.90;7.35;;;;;;;;;;4991599;28;20209;-67
2023/09/11 04:41:00;;;;;;;9.02;6.82;;;;;;;;;;4990821;28;20230;-67
2023/09/11 04:43:27;;;;;;;10.95;7.22;;;;;;;;;;4991670;28;20217;-68
2023/09/11 04:45:54;;;;;;;11.80;7.22;;;;;;;;;;4991553;28;20218;-67
2023/09/11 04:48:21;;;;;;;9.32;6.57;;;;;;;;;;4991157;28;20213;-68
2023/09/11 04:50:48;;;;;;;12.45;7.03;;;;;;;;;;4991446;28;20237;-68
2023/09/11 04:53:15;;;;;;;8.90;6.93;;;;;;;;;;4990917;28;20706;-68
2023/09/11 04:55:44;;;;;;;7.18;6.47;;;;;;;;;;4989773;28;20620;-67
2023/09/11 04:58:11;;;;;;;8.30;6.28;;;;;;;;;;4987389;28;20206;-67
2023/09/11 05:00:38;;;;;;;9.15;6.53;;;;;;;;;;4985255;28;20217;-67
2023/09/11 05:03:05;;;;;;;10.13;6.15;;;;;;;;;;4987771;28;20313;-68
2023/09/11 05:05:38;;;;;;;9.98;6.53;;;;;;;;;;4982185;28;20557;-67
2023/09/11 05:08:05;;;;;;;11.27;6.28;;;;;;;;;;4980569;28;20229;-68
2023/09/11 05:10:32;;;;;;;12.57;6.47;;;;;;;;;;4980717;28;20242;-68
2023/09/11 05:13:00;;;;;;;11.40;6.28;;;;;;;;;;4989921;28;20214;-66
2023/09/11 05:15:27;;;;;;;11.40;7.30;;;;;;;;;;4987383;28;20224;-68
2023/09/11 05:17:55;;;;;;;7.55;6.60;;;;;;;;;;4976864;28;20213;-62
2023/09/11 05:20:22;;;;;;;9.98;6.88;;;;;;;;;;4983707;28;20296;-71
2023/09/11 05:22:49;;;;;;;9.80;6.47;;;;;;;;;;4990230;28;20245;-68
2023/09/11 05:25:16;;;;;;;7.05;6.07;;;;;;;;;;4987882;28;20225;-69
2023/09/11 05:27:44;;;;;;;14.35;6.47;;;;;;;;;;4974914;28;20273;-69
2023/09/11 05:30:13;;;;;;;10.02;6.00;;;;;;;;;;4989900;28;20209;-69
2023/09/11 05:32:40;;;;;;;9.48;6.85;;;;;;;;;;4988644;28;20625;-69
2023/09/11 05:35:08;;;;;;;10.70;6.40;;;;;;;;;;4981885;28;20210;-69
2023/09/11 05:37:35;;;;;;;8.98;6.47;;;;;;;;;;4980328;28;20222;-69
2023/09/11 05:40:05;;;;;;;12.13;6.82;;;;;;;;;;4989805;28;20594;-69
2023/09/11 05:42:32;;;;;;;13.73;7.43;;;;;;;;;;4970837;28;20269;-69
2023/09/11 05:44:59;;;;;;;9.48;7.22;;;;;;;;;;4982693;28;20218;-70
2023/09/11 05:47:27;;;;;;;7.45;6.63;;;;;;;;;;4989857;28;20256;-69
2023/09/11 05:49:59;;;;;;;7.18;6.32;;;;;;;;;;4989660;28;20575;-69
2023/09/11 05:52:26;;;;;;;9.57;6.40;;;;;;;;;;4989472;28;20317;-70
2023/09/11 05:54:53;;;;;;;9.15;6.57;;;;;;;;;;4985005;28;20228;-70
2023/09/11 05:57:20;;;;;;;9.50;7.00;;;;;;;;;;4974371;28;20214;-70
2023/09/11 05:59:47;;;;;;;7.97;6.70;;;;;;;;;;4984017;28;20210;-70
2023/09/11 06:02:14;;;;;;;9.73;6.32;;;;;;;;;;4980904;28;20240;-69
2023/09/11 06:04:42;;;;;;;8.68;6.53;;;;;;;;;;4989875;28;20264;-69
2023/09/11 06:07:11;;;;;;;11.25;6.75;;;;;;;;;;4979355;28;20222;-70
2023/09/11 06:09:38;;;;;;;14.32;7.20;;;;;;;;;;4977124;28;20230;-70
2023/09/11 06:12:06;;;;;;;7.88;7.03;;;;;;;;;;4977164;28;20212;-69
2023/09/11 06:14:36;;;;;;;8.73;7.65;;;;;;;;;;4980447;28;20233;-71
2023/09/11 06:17:03;;;;;;;10.02;7.18;;;;;;;;;;4977760;28;20206;-71
2023/09/11 06:19:30;;;;;;;11.40;7.45;;;;;;;;;;4977594;28;20205;-72
2023/09/11 06:21:59;;;;;;;8.25;6.97;;;;;;;;;;4977751;28;20218;-72
2023/09/11 06:24:32;;;;;;;8.70;7.80;;;;;;;;;;4979801;28;20209;-72
2023/09/11 06:27:07;;;;;;;8.95;7.25;;;;;;;;;;4982295;28;20671;-71
2023/09/11 06:29:34;;;;;;;13.00;7.63;;;;;;;;;;4973558;28;20332;-71
2023/09/11 06:32:01;;;;;;;9.57;7.50;;;;;;;;;;4978049;28;20209;-72
2023/09/11 06:34:29;;;;;;;9.90;8.05;;;;;;;;;;4978584;28;20221;-72
2023/09/11 06:36:57;;;;;;;13.52;7.60;;;;;;;;;;4979667;28;20241;-72
2023/09/11 06:39:25;;;;;;;10.20;7.57;;;;;;;;;;4983735;28;20209;-73
2023/09/11 06:41:52;;;;;;;13.07;7.00;;;;;;;;;;4984116;28;20226;-71
2023/09/11 06:44:19;;;;;;;10.20;7.43;;;;;;;;;;4979477;28;20202;-70
2023/09/11 06:46:46;;;;;;;11.55;8.13;;;;;;;;;;4982296;28;20214;-67
2023/09/11 06:49:14;;;;;;;9.35;7.43;;;;;;;;;;4978943;28;20257;-73
2023/09/11 06:51:41;;;;;;;12.30;7.82;;;;;;;;;;4979668;28;20211;-74
2023/09/11 06:54:09;;;;;;;13.63;7.30;;;;;;;;;;4977475;28;20209;-77
2023/09/11 06:56:38;;;;;;;11.90;7.55;;;;;;;;;;4985165;28;20686;-70
2023/09/11 06:59:05;;;;;;;9.52;7.43;;;;;;;;;;4982808;28;20684;-67
2023/09/11 07:01:38;;;;;;;13.32;7.15;;;;;;;;;;4979608;28;20598;-70
2023/09/11 07:04:10;;;;;;;10.43;7.20;;;;;;;;;;4979979;28;20206;-74
2023/09/11 07:06:38;;;;;;;11.70;7.47;;;;;;;;;;4986235;28;20206;-68
2023/09/11 07:09:05;;;;;;;8.32;7.25;;;;;;;;;;4981136;28;20252;-68
2023/09/11 07:11:32;;;;;;;10.65;7.07;;;;;;;;;;4982038;28;20203;-69
2023/09/11 07:14:01;;;;;;;9.35;7.07;;;;;;;;;;4989944;28;20629;-69
2023/09/11 07:16:28;;;;;;;9.43;7.43;;;;;;;;;;4980769;28;21052;-69
2023/09/11 07:18:55;;;;;;;7.22;6.50;;;;;;;;;;4987337;28;20205;-69
2023/09/11 07:21:22;;;;;;;8.00;7.20;;;;;;;;;;4974528;28;20234;-69
2023/09/11 07:23:49;;;;;;;12.00;7.25;;;;;;;;;;4976624;28;20691;-69
2023/09/11 07:26:16;;;;;;;10.27;8.02;;;;;;;;;;4991416;28;20217;-69
2023/09/11 07:28:57;;;;;;;8.30;7.47;;;;;;;;;;4984927;28;20618;-69
2023/09/11 07:31:25;;;;;;;13.00;7.15;;;;;;;;;;4982597;28;20213;-69
2023/09/11 07:33:52;;;;;;;10.88;7.07;;;;;;;;;;4991260;28;20770;-69
2023/09/11 07:36:19;;;;;;;8.95;6.97;;;;;;;;;;4991252;28;20209;-69
2023/09/11 07:38:47;;;;;;;11.80;7.35;;;;;;;;;;4990659;28;20210;-69
2023/09/11 07:41:15;;;;;;;11.85;7.28;;;;;;;;;;4991405;28;20656;-70
2023/09/11 07:43:42;;;;;;;8.57;7.18;;;;;;;;;;4990946;28;20582;-70
2023/09/11 07:46:09;;;;;;;9.43;7.00;;;;;;;;;;4991299;28;20297;-70
2023/09/11 07:48:38;;;;;;;11.63;6.95;;;;;;;;;;4991227;28;20209;-70
2023/09/11 07:51:05;;;;;;;10.70;7.40;;;;;;;;;;4990860;28;20217;-70
2023/09/11 07:53:32;;;;;;;9.52;6.75;;;;;;;;;;4991277;28;20209;-70
2023/09/11 07:55:59;;;;;;;7.32;6.63;;;;;;;;;;4990825;28;20206;-70
2023/09/11 07:58:26;;;;;;;11.25;6.85;;;;;;;;;;4990525;28;20213;-70
2023/09/11 08:00:53;;;;;;;12.07;7.68;;;;;;;;;;4991078;28;20214;-70
2023/09/11 08:03:20;;;;;;;12.25;7.00;;;;;;;;;;4990375;28;20233;-70
2023/09/11 08:05:48;;;;;;;13.05;7.10;;;;;;;;;;4980630;28;20269;-70
2023/09/11 08:08:15;;;;;;;11.50;6.50;;;;;;;;;;4972442;28;20250;-70
2023/09/11 08:10:42;;;;;;;18.58;6.82;;;;;;;;;;4983048;28;20237;-70
2023/09/11 08:13:09;;;;;;;10.27;6.95;;;;;;;;;;4977968;28;20197;-70
2023/09/11 08:15:36;;;;;;;11.27;6.85;;;;;;;;;;4989546;28;20256;-70
2023/09/11 08:18:03;;;;;;;12.00;6.22;;;;;;;;;;4990014;28;20218;-70
2023/09/11 08:20:30;;;;;;;10.55;6.40;;;;;;;;;;4990725;28;20610;-70
2023/09/11 08:22:59;;;;;;;11.40;6.82;;;;;;;;;;4990357;28;20715;-70
2023/09/11 08:25:26;;;;;;;9.50;7.30;;;;;;;;;;4990393;28;20785;-71
2023/09/11 08:27:53;;;;;;;11.23;6.82;;;;;;;;;;4985614;28;20220;-70
2023/09/11 08:30:20;;;;;;;12.32;7.13;;;;;;;;;;4988700;28;20214;-71
2023/09/11 08:32:47;;;;;;;9.57;6.57;;;;;;;;;;4989941;28;20201;-70
2023/09/11 08:35:14;;;;;;;12.57;7.25;;;;;;;;;;4990356;28;20210;-71
2023/09/11 08:37:42;;;;;;;10.50;6.20;;;;;;;;;;4990203;28;20228;-71
2023/09/11 08:40:10;;;;;;;18.25;6.10;;;;;;;;;;4990570;28;20332;-74
2023/09/11 08:42:38;;;;;;;14.35;6.90;;;;;;;;;;4990364;28;20726;-70
2023/09/11 08:45:05;;;;;;;9.80;6.80;;;;;;;;;;4990559;28;20241;-69
2023/09/11 08:47:34;;;;;;;7.38;6.28;;;;;;;;;;4990306;28;20218;-68
2023/09/11 08:50:04;;;;;;;11.15;6.75;;;;;;;;;;4989163;28;20300;-69
2023/09/11 08:52:31;;;;;;;13.95;6.85;;;;;;;;;;4989406;28;20206;-69
2023/09/11 08:55:01;;;;;;;9.48;6.97;;;;;;;;;;4983754;28;20892;-69
2023/09/11 08:57:30;;;;;;;10.15;6.85;;;;;;;;;;4982900;28;20377;-69
2023/09/11 08:59:58;;;;;;;11.32;7.28;;;;;;;;;;4983093;28;20218;-69
2023/09/11 09:02:26;;;;;;;9.95;7.40;;;;;;;;;;4986348;28;20240;-69
2023/09/11 09:04:54;;;;;;;13.20;7.43;;;;;;;;;;4977982;28;20218;-69
2023/09/11 09:07:21;;;;;;;14.10;7.25;;;;;;;;;;4988163;28;20622;-69
2023/09/11 09:09:48;;;;;;;9.18;6.80;;;;;;;;;;4988082;28;21169;-69
2023/09/11 09:12:15;;;;;;;11.95;6.80;;;;;;;;;;4988224;28;20210;-69
2023/09/11 09:14:43;;;;;;;9.20;6.95;;;;;;;;;;4985964;28;20879;-69
2023/09/11 09:17:10;;;;;;;10.20;6.90;;;;;;;;;;4986872;28;20210;-71
2023/09/11 09:19:37;;;;;;;11.30;7.40;;;;;;;;;;4988821;28;20217;-65
2023/09/11 09:22:12;;;;;;;14.20;7.22;;;;;;;;;;4988223;28;20209;-65
2023/09/11 09:24:48;;;;;;;11.98;7.28;;;;;;;;;;4987360;28;20567;-65
2023/09/11 09:27:15;;;;;;;9.82;6.22;;;;;;;;;;4988284;28;20209;-65
2023/09/11 09:29:44;;;;;;;11.02;7.38;;;;;;;;;;4988595;28;20210;-67
2023/09/11 09:32:11;;;;;;;15.00;7.22;;;;;;;;;;4989026;28;20260;-72
2023/09/11 09:34:39;;;;;;;8.63;6.70;;;;;;;;;;4989457;28;20221;-74
2023/09/11 09:37:06;;;;;;;11.25;6.85;;;;;;;;;;4988732;28;20209;-75
2023/09/11 09:39:35;;;;;;;10.32;6.57;;;;;;;;;;4989476;28;20224;-67
2023/09/11 09:42:07;;;;;;;9.05;6.75;;;;;;;;;;4980299;28;20672;-70
2023/09/11 09:44:35;;;;;;;14.50;6.35;;;;;;;;;;4969993;28;20263;-73
2023/09/11 09:47:08;;;;;;;15.38;6.15;;;;;;;;;;4974285;28;20229;-75
2023/09/11 09:49:44;;;;;;;17.02;7.50;;;;;;;;;;4984981;28;20209;-72
2023/09/11 09:52:11;;;;;;;10.27;6.40;;;;;;;;;;4988550;28;20218;-68
2023/09/11 09:54:45;;;;;;;12.15;6.32;;;;;;;;;;4987484;28;20210;-67
2023/09/11 09:57:12;;;;;;;9.63;7.15;;;;;;;;;;4989277;28;20216;-68
2023/09/11 09:59:40;;;;;;;14.70;6.30;;;;;;;;;;4987284;28;20216;-67
2023/09/11 10:02:10;;;;;;;13.38;6.82;;;;;;;;;;4983969;28;20433;-69
2023/09/11 10:04:37;;;;;;;9.90;6.57;;;;;;;;;;4988796;28;20236;-69
2023/09/11 10:07:04;;;;;;;11.85;6.68;;;;;;;;;;4986870;28;20724;-68
2023/09/11 10:09:31;;;;;;;11.95;5.72;;;;;;;;;;4988176;28;20233;-68
2023/09/11 10:12:02;;;;;;;9.90;6.22;;;;;;;;;;4989244;28;20205;-68
2023/09/11 10:14:29;;;;;;;8.98;5.50;;;;;;;;;;4986513;28;20257;-68
2023/09/11 10:16:58;;;;;;;15.32;6.15;;;;;;;;;;4989072;28;20225;-68
2023/09/11 10:19:26;;;;;;;10.73;6.25;;;;;;;;;;4988384;28;20209;-70
2023/09/11 10:21:53;;;;;;;8.50;5.82;;;;;;;;;;4988938;28;21003;-68
2023/09/11 10:24:20;;;;;;;13.45;6.10;;;;;;;;;;4988861;28;20230;-67
2023/09/11 10:26:51;;;;;;;7.47;5.78;;;;;;;;;;4988998;28;20221;-67
2023/09/11 10:29:19;;;;;;;8.95;6.18;;;;;;;;;;4988866;28;20210;-68
2023/09/11 10:31:50;;;;;;;14.38;7.07;;;;;;;;;;4988915;28;20217;-71
2023/09/11 10:34:17;;;;;;;10.68;6.07;;;;;;;;;;4988886;28;20688;-71
2023/09/11 10:36:47;;;;;;;8.68;5.88;;;;;;;;;;4988798;28;20676;-69
2023/09/11 10:39:15;;;;;;;12.20;5.28;;;;;;;;;;4986684;28;20323;-72
2023/09/11 10:41:42;;;;;;;7.60;5.75;;;;;;;;;;4988945;28;20232;-69
2023/09/11 10:44:09;;;;;;;10.23;5.78;;;;;;;;;;4987715;28;20236;-70
2023/09/11 10:46:39;;;;;;;9.82;6.53;;;;;;;;;;4988623;28;20209;-68
2023/09/11 10:49:16;;;;;;;10.55;5.97;;;;;;;;;;4988410;28;20208;-69
2023/09/11 10:51:43;;;;;;;13.52;6.57;;;;;;;;;;4988913;28;20208;-69
2023/09/11 10:54:12;;;;;;;10.18;5.38;;;;;;;;;;4988221;28;20202;-69
2023/09/11 10:56:39;;;;;;;13.85;5.88;;;;;;;;;;4988073;28;20216;-70
2023/09/11 10:59:07;;;;;;;11.30;6.03;;;;;;;;;;4987815;28;20217;-65
2023/09/11 11:01:34;;;;;;;7.78;5.47;;;;;;;;;;4981676;28;20238;-69
2023/09/11 11:04:02;;;;;;;7.03;6.20;;;;;;;;;;4982033;28;21068;-71
2023/09/11 11:06:31;;;;;;;10.50;5.95;;;;;;;;;;4988589;28;20210;-68
2023/09/11 11:08:58;;;;;;;10.65;5.97;;;;;;;;;;4986268;28;20237;-66
2023/09/11 11:11:29;;;;;;;11.10;6.25;;;;;;;;;;4988458;28;20213;-67
2023/09/11 11:14:12;;;;;;;11.20;5.70;;;;;;;;;;4983705;28;20207;-68
2023/09/11 11:16:39;;;;;;;10.77;6.18;;;;;;;;;;4978918;28;20202;-68
2023/09/11 11:19:06;;;;;;;7.60;4.63;;;;;;;;;;4987873;28;20225;-71
2023/09/11 11:21:40;;;;;;;7.63;5.32;;;;;;;;;;4986193;28;20704;-71
2023/09/11 11:24:09;;;;;;;9.20;5.43;;;;;;;;;;4985190;28;20221;-63
2023/09/11 11:26:38;;;;;;;11.75;5.68;;;;;;;;;;4981357;28;20566;-73
2023/09/11 11:29:06;;;;;;;16.00;6.03;;;;;;;;;;4988160;28;20215;-69
2023/09/11 11:31:33;;;;;;;15.48;5.72;;;;;;;;;;4984002;28;20256;-71
2023/09/11 11:34:01;;;;;;;9.30;5.25;;;;;;;;;;4987756;28;20558;-72
2023/09/11 11:36:29;;;;;;;7.53;5.45;;;;;;;;;;4982963;28;20210;-67
2023/09/11 11:38:58;;;;;;;8.82;5.70;;;;;;;;;;4988330;28;20213;-70
2023/09/11 11:41:25;;;;;;;8.20;5.30;;;;;;;;;;4987158;28;20562;-69
2023/09/11 11:43:54;;;;;;;9.98;5.50;;;;;;;;;;4988104;28;20238;-73
2023/09/11 11:46:25;;;;;;;13.65;5.40;;;;;;;;;;4987815;28;20198;-65
2023/09/11 11:48:52;;;;;;;7.07;4.82;;;;;;;;;;4986541;28;20225;-72
2023/09/11 11:51:28;;;;;;;10.40;5.75;;;;;;;;;;4988477;28;20209;-70
2023/09/11 11:53:55;;;;;;;14.73;5.90;;;;;;;;;;4978350;28;20236;-68
2023/09/11 11:56:22;;;;;;;12.65;5.35;;;;;;;;;;4981078;28;20209;-65
2023/09/11 11:58:50;;;;;;;7.45;5.22;;;;;;;;;;4991384;28;20206;-65
2023/09/11 12:01:18;;;;;;;11.07;5.70;;;;;;;;;;4978187;28;20285;-67
2023/09/11 12:03:49;;;;;;;9.55;5.10;;;;;;;;;;4985907;28;20237;-68
2023/09/11 12:06:16;;;;;;;11.07;4.95;;;;;;;;;;4989833;28;20586;-68
2023/09/11 12:08:44;;;;;;;6.55;4.43;;;;;;;;;;4978648;28;20230;-67
2023/09/11 12:11:12;;;;;;;13.50;4.97;;;;;;;;;;4991612;28;20304;-68
2023/09/11 12:13:39;;;;;;;13.02;4.63;;;;;;;;;;4982337;28;20214;-68
2023/09/11 12:16:06;;;;;;;10.93;5.13;;;;;;;;;;4988279;28;20690;-68
2023/09/11 12:18:37;;;;;;;7.85;5.25;;;;;;;;;;4989497;28;20210;-68
2023/09/11 12:21:07;;;;;;;14.25;5.10;;;;;;;;;;4984436;28;20202;-68
2023/09/11 12:23:34;;;;;;;13.05;5.63;;;;;;;;;;4979804;28;20261;-67
2023/09/11 12:26:02;;;;;;;8.30;5.25;;;;;;;;;;4982421;28;20225;-68
2023/09/11 12:28:30;;;;;;;15.50;5.53;;;;;;;;;;4988618;28;20336;-68
2023/09/11 12:31:01;;;;;;;14.57;4.60;;;;;;;;;;4974074;28;20206;-68
2023/09/11 12:33:32;;;;;;;14.02;4.70;;;;;;;;;;4978690;28;20720;-67
2023/09/11 12:36:02;;;;;;;13.70;4.95;;;;;;;;;;4987964;28;20292;-68
2023/09/11 12:38:30;;;;;;;10.13;4.75;;;;;;;;;;4976014;28;20394;-66
2023/09/11 12:40:58;;;;;;;10.88;4.72;;;;;;;;;;4989128;28;20210;-69
2023/09/11 12:43:25;;;;;;;11.25;4.95;;;;;;;;;;4989649;28;20232;-67
2023/09/11 12:45:52;;;;;;;13.27;4.28;;;;;;;;;;4986757;28;20215;-67
2023/09/11 12:48:19;;;;;;;9.57;4.28;;;;;;;;;;4990438;28;20328;-65
2023/09/11 12:50:46;;;;;;;20.17;4.50;;;;;;;;;;4985342;28;20214;-67
2023/09/11 12:53:15;;;;;;;16.13;4.45;;;;;;;;;;4986175;28;20213;-67
2023/09/11 12:55:43;;;;;;;10.90;4.20;;;;;;;;;;4985348;28;20217;-66
2023/09/11 12:58:10;;;;;;;17.42;5.18;;;;;;;;;;4970419;28;20221;-66
2023/09/11 13:00:42;;;;;;;12.82;4.38;;;;;;;;;;4988700;28;20250;-67
2023/09/11 13:03:10;;;;;;;9.02;4.40;;;;;;;;;;4989473;28;20323;-67
2023/09/11 13:05:37;;;;;;;13.35;4.88;;;;;;;;;;4989603;28;20685;-67
2023/09/11 13:08:04;;;;;;;14.55;4.30;;;;;;;;;;4989275;28;20225;-67
2023/09/11 13:10:33;;;;;;;11.55;4.22;;;;;;;;;;4989091;28;20253;-67
2023/09/11 13:13:00;;;;;;;12.90;4.05;;;;;;;;;;4989239;28;20213;-66
2023/09/11 13:15:27;;;;;;;19.67;4.50;;;;;;;;;;4989451;28;20205;-67
2023/09/11 13:17:55;;;;;;;9.85;4.57;;;;;;;;;;4985987;28;20248;-67
2023/09/11 13:20:22;;;;;;;13.93;4.30;;;;;;;;;;4989105;28;20205;-67
2023/09/11 13:22:49;;;;;;;10.20;5.18;;;;;;;;;;4989513;28;20224;-67
2023/09/11 13:25:16;;;;;;;13.63;4.45;;;;;;;;;;4974097;28;20233;-66
2023/09/11 13:27:44;;;;;;;14.85;4.38;;;;;;;;;;4976412;28;21016;-67
2023/09/11 13:30:12;;;;;;;7.32;3.47;;;;;;;;;;4989783;28;20224;-67
2023/09/11 13:32:40;;;;;;;11.07;4.30;;;;;;;;;;4989913;28;20214;-67
2023/09/11 13:35:09;;;;;;;11.07;3.55;;;;;;;;;;4989187;28;20214;-65
2023/09/11 13:37:36;;;;;;;15.93;4.40;;;;;;;;;;4984066;28;20496;-65
2023/09/11 13:40:03;;;;;;;14.82;4.22;;;;;;;;;;4974570;28;20206;-66
2023/09/11 13:42:30;;;;;;;15.60;4.00;;;;;;;;;;4984595;28;20241;-65
2023/09/11 13:44:58;;;;;;;13.50;4.35;;;;;;;;;;4989428;28;20237;-66
2023/09/11 13:47:26;;;;;;;9.52;3.90;;;;;;;;;;4989198;28;20210;-65
2023/09/11 13:49:53;;;;;;;12.13;4.18;;;;;;;;;;4989311;28;20209;-65
2023/09/11 13:52:20;;;;;;;12.05;4.28;;;;;;;;;;4985358;28;20246;-66
2023/09/11 13:54:47;;;;;;;16.58;3.90;;;;;;;;;;4984303;28;20198;-65
2023/09/11 13:57:14;;;;;;;5.93;3.95;;;;;;;;;;4989050;28;20220;-65
2023/09/11 13:59:41;;;;;;;14.32;3.80;;;;;;;;;;4989011;28;20220;-66
2023/09/11 14:02:10;;;;;;;10.30;3.90;;;;;;;;;;4987451;28;20252;-66
2023/09/11 14:04:37;;;;;;;15.48;3.80;;;;;;;;;;4988739;28;20413;-66
2023/09/11 14:07:04;;;;;;;11.15;3.42;;;;;;;;;;4989010;28;20596;-66
2023/09/11 14:09:31;;;;;;;8.35;3.63;;;;;;;;;;4988688;28;20241;-66
2023/09/11 14:11:58;;;;;;;12.23;4.15;;;;;;;;;;4988029;28;20723;-65
2023/09/11 14:14:25;;;;;;;7.72;3.53;;;;;;;;;;4987758;28;20202;-65
2023/09/11 14:16:52;;;;;;;8.40;3.60;;;;;;;;;;4984805;28;20206;-66
2023/09/11 14:19:21;;;;;;;10.13;3.65;;;;;;;;;;4969956;28;20214;-66
2023/09/11 14:21:48;;;;;;;10.70;3.70;;;;;;;;;;4979479;28;20287;-67
2023/09/11 14:24:15;;;;;;;13.80;4.93;;;;;;;;;;4985188;28;20603;-65
2023/09/11 14:26:42;;;;;;;8.23;3.63;;;;;;;;;;4986544;28;20676;-68
2023/09/11 14:29:09;;;;;;;12.98;4.25;;;;;;;;;;4986776;28;20213;-67
2023/09/11 14:31:36;;;;;;;9.48;3.65;;;;;;;;;;4986747;28;20243;-67
2023/09/11 14:34:03;;;;;;;7.15;3.55;;;;;;;;;;4982642;28;20245;-66
2023/09/11 14:36:32;;;;;;;11.02;3.28;;;;;;;;;;4983868;28;20213;-63
2023/09/11 14:38:59;;;;;;;10.73;3.22;;;;;;;;;;4986345;28;20213;-63